メインページ
METAR-TAF:

METAR-TAF

空港 :

モンバサ, ケニヤ

緯度: 04-02S, 経度: 039-37E, 海抜: 57m

現時点の気象観測

当レポートは34分前の15:00(UTC)に作成
の風 7kt
気温 27°C
湿度 74%
気圧 1011 hPa
視程10km以上
高度2400ftの雲はほとんどない
高度8000ftの千切れ雲あり

METAR: HKMO 201500Z 18007KT 9999 FEW024 BKN080 27/22 Q1011 NOSIG

時間: 18:34 (15:34 UTC)

予報

当レポートは4時間34分前の11:00(UTC)に作成
予報は20日の 12時(UTC)から 21日の 18時(UTC)まで有効
の風 10kt
視程10km以上
高度2600ftの雲は散在している
20日の 18時(UTC)から 20日の 21時(UTC)まで徐々に
の風 5kt
高度2200ftの雲はほとんどない
21日の 00時(UTC)から 21日の 06時(UTC)まで徐々に
南西の風 5kt
高度1900ftの雲はほとんどない
21日の 09時(UTC)から 21日の 12時(UTC)まで徐々に
の風 10kt
高度2600ftの雲は散在している
21日の 15時(UTC)から 21日の 18時(UTC)まで徐々に
の風 5kt
高度2300ftの雲はほとんどない

TAF: HKMO 201100Z 2012/2118 18010KT 9999 SCT026 BECMG 2018/2021 18005KT FEW022 BECMG 2100/2106 23005KT FEW019 BECMG 2109/2112 18010KT SCT026 BECMG 2115/2118 19005KT FEW023

4,000以上の空港の気象観測と天気予報(METAR報とTAF報)

利用可能な観測所は地図上に黄色い丸と赤い丸で示す。

丸の上にカーソルを重ねると観測所名を参照できる。

次にクリックすると気象観測と天気予報を参照できる。

マップの切り替え:黒色「×」印の緑ボタンをクリックして拡大、「-」印の緑ボタンをクリックして縮小、緑色の三角印をクリックして隣りの地図に切り替え


METAR-TAF: